Etusivu
METAR-TAF:

METAR-TAF

Lentoasemat :

Malé, Hulhule Island, Malediivit

Malén kansainvälinen lentoasema

Leveyspiiri: 04-12N, Pituuspiiri: 073-32E, korkeus merenpinnasta: 2 m

Tämänhetkinen sää

Tämä raportti tehtiin 1 tunti ja 5 minuuttia sitten, kello 09.00 UTC
Tuuli 12 kn lännestä/lounaasta
Lämpötila 32°C
Kosteus 71%
Ilmanpaine 1009 hPa
Näkyvyys 10 km tai enemmän
Hajanaisia pilviä 1700 ft:n korkeudessa, Kasvava cumulus-pilvi.

METAR: VRMM 220900Z 25012KT 9999 SCT017TCU 32/26 Q1009 NOSIG

Aika: 15:05 (10:05 UTC)

Sääennuste

Tämä raportti tehtiin 5 tuntia ja 5 minuuttia sitten, kello 05.00 UTC
Ennuste voimassa 22. päivästä klo 06 UTC - 23. päivään klo 12 UTC
Tuuli 11 kn lännestä/lounaasta
Näkyvyys 10 km tai enemmän
Muutamia pilviä 1800 ft:n korkeudessa
Ajoittain
22. päivästä klo 09 UTC - 22. päivään klo 15 UTC
Muutamia pilviä 1800 ft:n korkeudessa, Cumulonimbus.

TAF: VRMM 220500Z 2206/2312 25011KT 9999 FEW018 TEMPO 2209/2215 FEW018CB

Säähavainnot ja -ennusteet yli 4000 lentoasemalta (METAR- ja TAF-raportit).

Käytössä olevat sääasemat on merkitty karttaan keltaisilla ja punaisilla pisteillä.

Aseta hiiri pisteen päälle nähdäksesi sääaseman nimen.

Klikkaa sitten nähdäksesi säähavainnot ja -ennusteet.

Kartan vaihtaminen: klikkaa mustalla rastilla varustettuja vihreitä pisteitä, niin voit zoomata sisään; viivalla varustettua vihreää pistettä, niin voit zoomata ulos tai vihreitä nuolia, niin pääset viereisille kartoille.


METAR-TAF: